sensor_id;sensor_type;location;lat;lon;timestamp;P1;durP1;ratioP1;P2;durP2;ratioP2
50737;SDS011;36703;48.154;17.126;2022-07-23T00:02:11;8.60;;;5.90;;
50737;SDS011;36703;48.154;17.126;2022-07-23T00:06:13;8.82;;;5.68;;
50737;SDS011;36703;48.154;17.126;2022-07-23T00:10:14;12.00;;;5.70;;
50737;SDS011;36703;48.154;17.126;2022-07-23T00:14:16;8.30;;;5.55;;
50737;SDS011;36703;48.154;17.126;2022-07-23T00:18:17;8.82;;;5.13;;
50737;SDS011;36703;48.154;17.126;2022-07-23T00:22:19;9.38;;;5.60;;
50737;SDS011;36703;48.154;17.126;2022-07-23T00:26:20;10.02;;;5.40;;
50737;SDS011;36703;48.154;17.126;2022-07-23T00:30:22;7.30;;;5.25;;
50737;SDS011;36703;48.154;17.126;2022-07-23T00:34:23;9.00;;;5.20;;
50737;SDS011;36703;48.154;17.126;2022-07-23T00:38:24;9.13;;;5.28;;
50737;SDS011;36703;48.154;17.126;2022-07-23T00:42:25;7.63;;;5.82;;
50737;SDS011;36703;48.154;17.126;2022-07-23T00:46:27;10.00;;;5.35;;
50737;SDS011;36703;48.154;17.126;2022-07-23T00:50:28;6.03;;;4.95;;
50737;SDS011;36703;48.154;17.126;2022-07-23T00:54:30;6.28;;;4.82;;
50737;SDS011;36703;48.154;17.126;2022-07-23T00:58:32;7.20;;;5.50;;
50737;SDS011;36703;48.154;17.126;2022-07-23T01:02:36;9.10;;;6.35;;
50737;SDS011;36703;48.154;17.126;2022-07-23T01:06:38;10.60;;;6.85;;
50737;SDS011;36703;48.154;17.126;2022-07-23T01:10:40;9.57;;;7.13;;
50737;SDS011;36703;48.154;17.126;2022-07-23T01:14:41;10.13;;;8.25;;
50737;SDS011;36703;48.154;17.126;2022-07-23T01:18:43;12.02;;;8.82;;
50737;SDS011;36703;48.154;17.126;2022-07-23T01:22:44;14.18;;;8.55;;
50737;SDS011;36703;48.154;17.126;2022-07-23T01:26:47;14.20;;;9.45;;
50737;SDS011;36703;48.154;17.126;2022-07-23T01:30:49;13.15;;;9.00;;
50737;SDS011;36703;48.154;17.126;2022-07-23T01:34:51;13.20;;;9.40;;
50737;SDS011;36703;48.154;17.126;2022-07-23T01:38:52;10.82;;;9.23;;
50737;SDS011;36703;48.154;17.126;2022-07-23T01:42:54;12.15;;;10.20;;
50737;SDS011;36703;48.154;17.126;2022-07-23T01:46:56;10.48;;;7.97;;
50737;SDS011;36703;48.154;17.126;2022-07-23T01:50:57;11.90;;;8.50;;
50737;SDS011;36703;48.154;17.126;2022-07-23T01:55:11;12.68;;;6.57;;
50737;SDS011;36703;48.154;17.126;2022-07-23T01:59:15;11.73;;;8.00;;
50737;SDS011;36703;48.154;17.126;2022-07-23T02:03:16;9.07;;;6.45;;
50737;SDS011;36703;48.154;17.126;2022-07-23T02:07:18;10.85;;;7.78;;
50737;SDS011;36703;48.154;17.126;2022-07-23T02:11:19;13.57;;;9.68;;
50737;SDS011;36703;48.154;17.126;2022-07-23T02:15:20;14.20;;;9.63;;
50737;SDS011;36703;48.154;17.126;2022-07-23T02:19:22;8.95;;;8.05;;
50737;SDS011;36703;48.154;17.126;2022-07-23T02:23:24;12.20;;;8.43;;
50737;SDS011;36703;48.154;17.126;2022-07-23T02:27:27;11.13;;;9.50;;
50737;SDS011;36703;48.154;17.126;2022-07-23T02:31:29;12.13;;;8.90;;
50737;SDS011;36703;48.154;17.126;2022-07-23T02:35:31;12.07;;;8.90;;
50737;SDS011;36703;48.154;17.126;2022-07-23T02:39:35;9.10;;;6.68;;
50737;SDS011;36703;48.154;17.126;2022-07-23T02:43:36;11.18;;;6.47;;
50737;SDS011;36703;48.154;17.126;2022-07-23T02:47:38;9.77;;;8.43;;
50737;SDS011;36703;48.154;17.126;2022-07-23T02:51:39;10.52;;;8.02;;
50737;SDS011;36703;48.154;17.126;2022-07-23T02:55:42;12.35;;;9.43;;
50737;SDS011;36703;48.154;17.126;2022-07-23T02:59:44;14.55;;;9.48;;
50737;SDS011;36703;48.154;17.126;2022-07-23T03:03:45;13.07;;;10.20;;
50737;SDS011;36703;48.154;17.126;2022-07-23T03:07:46;15.32;;;12.20;;
50737;SDS011;36703;48.154;17.126;2022-07-23T03:11:48;14.57;;;9.68;;
50737;SDS011;36703;48.154;17.126;2022-07-23T03:15:49;9.55;;;7.18;;
50737;SDS011;36703;48.154;17.126;2022-07-23T03:19:50;10.80;;;7.55;;
50737;SDS011;36703;48.154;17.126;2022-07-23T03:23:51;9.52;;;6.60;;
50737;SDS011;36703;48.154;17.126;2022-07-23T03:27:53;9.70;;;6.88;;
50737;SDS011;36703;48.154;17.126;2022-07-23T03:31:54;9.18;;;5.60;;
50737;SDS011;36703;48.154;17.126;2022-07-23T03:35:55;7.25;;;6.38;;
50737;SDS011;36703;48.154;17.126;2022-07-23T03:40:00;9.57;;;6.40;;
50737;SDS011;36703;48.154;17.126;2022-07-23T03:44:03;8.77;;;6.05;;
50737;SDS011;36703;48.154;17.126;2022-07-23T03:48:04;6.57;;;5.95;;
50737;SDS011;36703;48.154;17.126;2022-07-23T03:52:06;7.78;;;5.63;;
50737;SDS011;36703;48.154;17.126;2022-07-23T03:56:07;7.47;;;5.95;;
50737;SDS011;36703;48.154;17.126;2022-07-23T04:00:09;8.80;;;5.55;;
50737;SDS011;36703;48.154;17.126;2022-07-23T04:04:17;6.82;;;5.88;;
50737;SDS011;36703;48.154;17.126;2022-07-23T04:08:19;8.05;;;5.88;;
50737;SDS011;36703;48.154;17.126;2022-07-23T04:12:24;7.00;;;5.10;;
50737;SDS011;36703;48.154;17.126;2022-07-23T04:16:27;10.10;;;5.32;;
50737;SDS011;36703;48.154;17.126;2022-07-23T04:20:29;10.68;;;5.60;;
50737;SDS011;36703;48.154;17.126;2022-07-23T04:24:34;7.80;;;4.95;;
50737;SDS011;36703;48.154;17.126;2022-07-23T04:28:36;6.25;;;5.00;;
50737;SDS011;36703;48.154;17.126;2022-07-23T04:32:38;7.28;;;5.53;;
50737;SDS011;36703;48.154;17.126;2022-07-23T04:36:47;8.40;;;5.80;;
50737;SDS011;36703;48.154;17.126;2022-07-23T04:40:48;5.70;;;5.10;;
50737;SDS011;36703;48.154;17.126;2022-07-23T04:44:50;8.52;;;5.93;;
50737;SDS011;36703;48.154;17.126;2022-07-23T04:48:51;7.18;;;5.97;;
50737;SDS011;36703;48.154;17.126;2022-07-23T04:52:53;8.38;;;6.57;;
50737;SDS011;36703;48.154;17.126;2022-07-23T04:56:54;19.42;;;14.40;;
50737;SDS011;36703;48.154;17.126;2022-07-23T05:00:55;15.95;;;13.43;;
50737;SDS011;36703;48.154;17.126;2022-07-23T05:04:58;17.92;;;13.23;;
50737;SDS011;36703;48.154;17.126;2022-07-23T05:09:01;16.42;;;12.68;;
50737;SDS011;36703;48.154;17.126;2022-07-23T05:13:04;14.77;;;12.23;;
50737;SDS011;36703;48.154;17.126;2022-07-23T05:17:05;13.48;;;10.93;;
50737;SDS011;36703;48.154;17.126;2022-07-23T05:21:08;15.88;;;10.65;;
50737;SDS011;36703;48.154;17.126;2022-07-23T05:25:10;11.73;;;8.60;;
50737;SDS011;36703;48.154;17.126;2022-07-23T05:29:11;10.63;;;8.05;;
50737;SDS011;36703;48.154;17.126;2022-07-23T05:33:12;7.55;;;6.78;;
50737;SDS011;36703;48.154;17.126;2022-07-23T05:37:16;10.10;;;6.55;;
50737;SDS011;36703;48.154;17.126;2022-07-23T05:41:17;8.75;;;6.70;;
50737;SDS011;36703;48.154;17.126;2022-07-23T05:45:19;8.00;;;6.78;;
50737;SDS011;36703;48.154;17.126;2022-07-23T05:49:20;13.40;;;8.48;;
50737;SDS011;36703;48.154;17.126;2022-07-23T05:53:47;9.48;;;8.40;;
50737;SDS011;36703;48.154;17.126;2022-07-23T05:57:57;13.73;;;8.52;;
50737;SDS011;36703;48.154;17.126;2022-07-23T06:01:59;10.70;;;7.47;;
50737;SDS011;36703;48.154;17.126;2022-07-23T06:06:01;11.27;;;6.95;;
50737;SDS011;36703;48.154;17.126;2022-07-23T06:10:03;6.15;;;5.32;;
50737;SDS011;36703;48.154;17.126;2022-07-23T06:14:05;9.68;;;5.40;;
50737;SDS011;36703;48.154;17.126;2022-07-23T06:18:24;6.63;;;5.50;;
50737;SDS011;36703;48.154;17.126;2022-07-23T06:22:28;6.28;;;5.68;;
50737;SDS011;36703;48.154;17.126;2022-07-23T06:26:30;11.75;;;6.45;;
50737;SDS011;36703;48.154;17.126;2022-07-23T06:30:31;7.20;;;5.88;;
50737;SDS011;36703;48.154;17.126;2022-07-23T06:34:33;8.85;;;6.57;;
50737;SDS011;36703;48.154;17.126;2022-07-23T06:38:34;8.77;;;7.72;;
50737;SDS011;36703;48.154;17.126;2022-07-23T06:42:35;7.80;;;6.15;;
50737;SDS011;36703;48.154;17.126;2022-07-23T06:46:39;12.75;;;8.38;;
50737;SDS011;36703;48.154;17.126;2022-07-23T06:50:40;11.25;;;8.57;;
50737;SDS011;36703;48.154;17.126;2022-07-23T06:54:42;12.73;;;8.10;;
50737;SDS011;36703;48.154;17.126;2022-07-23T06:58:43;12.38;;;8.18;;
50737;SDS011;36703;48.154;17.126;2022-07-23T07:02:44;11.80;;;8.68;;
50737;SDS011;36703;48.154;17.126;2022-07-23T07:06:45;8.93;;;7.72;;
50737;SDS011;36703;48.154;17.126;2022-07-23T07:10:47;9.20;;;6.53;;
50737;SDS011;36703;48.154;17.126;2022-07-23T07:14:48;7.88;;;6.00;;
50737;SDS011;36703;48.154;17.126;2022-07-23T07:18:49;13.82;;;10.60;;
50737;SDS011;36703;48.154;17.126;2022-07-23T07:22:51;19.45;;;16.58;;
50737;SDS011;36703;48.154;17.126;2022-07-23T07:26:52;14.82;;;7.95;;
50737;SDS011;36703;48.154;17.126;2022-07-23T07:30:53;10.70;;;6.43;;
50737;SDS011;36703;48.154;17.126;2022-07-23T07:34:54;10.70;;;6.35;;
50737;SDS011;36703;48.154;17.126;2022-07-23T07:38:56;13.18;;;5.95;;
50737;SDS011;36703;48.154;17.126;2022-07-23T07:42:57;11.07;;;6.32;;
50737;SDS011;36703;48.154;17.126;2022-07-23T07:46:59;10.40;;;5.82;;
50737;SDS011;36703;48.154;17.126;2022-07-23T07:51:00;9.52;;;5.78;;
50737;SDS011;36703;48.154;17.126;2022-07-23T07:55:05;7.20;;;5.28;;
50737;SDS011;36703;48.154;17.126;2022-07-23T07:59:08;12.20;;;6.15;;
50737;SDS011;36703;48.154;17.126;2022-07-23T08:03:11;8.73;;;5.60;;
50737;SDS011;36703;48.154;17.126;2022-07-23T08:07:12;10.35;;;5.65;;
50737;SDS011;36703;48.154;17.126;2022-07-23T08:11:14;37.97;;;26.45;;
50737;SDS011;36703;48.154;17.126;2022-07-23T08:15:16;17.83;;;14.85;;
50737;SDS011;36703;48.154;17.126;2022-07-23T08:19:20;11.50;;;6.15;;
50737;SDS011;36703;48.154;17.126;2022-07-23T08:23:21;6.50;;;5.40;;
50737;SDS011;36703;48.154;17.126;2022-07-23T08:27:23;7.60;;;5.60;;
50737;SDS011;36703;48.154;17.126;2022-07-23T08:31:24;13.05;;;6.00;;
50737;SDS011;36703;48.154;17.126;2022-07-23T08:35:29;9.02;;;5.82;;
50737;SDS011;36703;48.154;17.126;2022-07-23T08:43:36;8.45;;;5.85;;
50737;SDS011;36703;48.154;17.126;2022-07-23T08:47:37;9.75;;;6.18;;
50737;SDS011;36703;48.154;17.126;2022-07-23T08:51:40;12.20;;;6.28;;
50737;SDS011;36703;48.154;17.126;2022-07-23T08:55:45;9.68;;;6.03;;
50737;SDS011;36703;48.154;17.126;2022-07-23T08:59:53;9.00;;;6.72;;
50737;SDS011;36703;48.154;17.126;2022-07-23T09:03:54;11.07;;;6.57;;
50737;SDS011;36703;48.154;17.126;2022-07-23T09:08:03;45.05;;;30.98;;
50737;SDS011;36703;48.154;17.126;2022-07-23T09:12:08;16.63;;;12.75;;
50737;SDS011;36703;48.154;17.126;2022-07-23T09:16:12;14.07;;;6.78;;
50737;SDS011;36703;48.154;17.126;2022-07-23T09:20:16;10.18;;;5.88;;
50737;SDS011;36703;48.154;17.126;2022-07-23T09:24:17;8.82;;;6.13;;
50737;SDS011;36703;48.154;17.126;2022-07-23T09:28:20;6.78;;;5.28;;
50737;SDS011;36703;48.154;17.126;2022-07-23T09:32:22;6.20;;;5.07;;
50737;SDS011;36703;48.154;17.126;2022-07-23T09:36:26;7.15;;;5.00;;
50737;SDS011;36703;48.154;17.126;2022-07-23T09:40:31;4.80;;;4.35;;
50737;SDS011;36703;48.154;17.126;2022-07-23T09:44:32;8.80;;;4.60;;
50737;SDS011;36703;48.154;17.126;2022-07-23T09:48:43;7.00;;;4.65;;
50737;SDS011;36703;48.154;17.126;2022-07-23T09:52:46;6.57;;;4.65;;
50737;SDS011;36703;48.154;17.126;2022-07-23T09:56:49;5.80;;;4.15;;
50737;SDS011;36703;48.154;17.126;2022-07-23T10:00:53;7.43;;;4.57;;
50737;SDS011;36703;48.154;17.126;2022-07-23T10:04:54;10.52;;;4.60;;
50737;SDS011;36703;48.154;17.126;2022-07-23T10:09:22;18.95;;;4.13;;
50737;SDS011;36703;48.154;17.126;2022-07-23T10:13:47;5.35;;;4.10;;
50737;SDS011;36703;48.154;17.126;2022-07-23T10:17:56;4.88;;;3.85;;
50737;SDS011;36703;48.154;17.126;2022-07-23T10:22:02;6.78;;;4.30;;
50737;SDS011;36703;48.154;17.126;2022-07-23T10:39:11;6.03;;;4.38;;
50737;SDS011;36703;48.154;17.126;2022-07-23T10:43:27;8.77;;;4.40;;
50737;SDS011;36703;48.154;17.126;2022-07-23T10:47:30;10.38;;;4.85;;
50737;SDS011;36703;48.154;17.126;2022-07-23T10:52:09;5.75;;;4.65;;
50737;SDS011;36703;48.154;17.126;2022-07-23T10:56:15;5.00;;;4.50;;
50737;SDS011;36703;48.154;17.126;2022-07-23T11:00:18;7.25;;;4.72;;
50737;SDS011;36703;48.154;17.126;2022-07-23T11:04:47;6.15;;;4.65;;
50737;SDS011;36703;48.154;17.126;2022-07-23T11:13:29;5.47;;;4.65;;
50737;SDS011;36703;48.154;17.126;2022-07-23T11:18:03;4.47;;;4.05;;
50737;SDS011;36703;48.154;17.126;2022-07-23T11:22:04;6.13;;;4.55;;
50737;SDS011;36703;48.154;17.126;2022-07-23T11:26:05;5.13;;;4.57;;
50737;SDS011;36703;48.154;17.126;2022-07-23T11:30:08;5.07;;;4.40;;
50737;SDS011;36703;48.154;17.126;2022-07-23T11:34:38;7.07;;;4.25;;
50737;SDS011;36703;48.154;17.126;2022-07-23T11:38:42;6.70;;;4.13;;
50737;SDS011;36703;48.154;17.126;2022-07-23T11:42:58;5.50;;;3.60;;
50737;SDS011;36703;48.154;17.126;2022-07-23T11:47:23;6.32;;;2.97;;
50737;SDS011;36703;48.154;17.126;2022-07-23T11:51:26;4.68;;;3.00;;
50737;SDS011;36703;48.154;17.126;2022-07-23T11:55:27;3.55;;;3.20;;
50737;SDS011;36703;48.154;17.126;2022-07-23T11:59:32;7.00;;;3.28;;
50737;SDS011;36703;48.154;17.126;2022-07-23T12:03:34;4.65;;;3.00;;
50737;SDS011;36703;48.154;17.126;2022-07-23T12:07:36;4.63;;;2.58;;
50737;SDS011;36703;48.154;17.126;2022-07-23T12:11:55;6.30;;;2.85;;
50737;SDS011;36703;48.154;17.126;2022-07-23T12:16:00;4.55;;;2.65;;
50737;SDS011;36703;48.154;17.126;2022-07-23T12:20:06;3.97;;;2.97;;
50737;SDS011;36703;48.154;17.126;2022-07-23T12:24:10;6.55;;;2.90;;
50737;SDS011;36703;48.154;17.126;2022-07-23T12:28:13;4.68;;;2.60;;
50737;SDS011;36703;48.154;17.126;2022-07-23T12:32:29;4.93;;;2.85;;
50737;SDS011;36703;48.154;17.126;2022-07-23T12:36:37;2.90;;;2.25;;
50737;SDS011;36703;48.154;17.126;2022-07-23T12:40:46;4.05;;;1.98;;
50737;SDS011;36703;48.154;17.126;2022-07-23T12:45:02;3.25;;;2.13;;
50737;SDS011;36703;48.154;17.126;2022-07-23T12:49:05;3.05;;;2.17;;
50737;SDS011;36703;48.154;17.126;2022-07-23T12:57:10;3.72;;;2.70;;
50737;SDS011;36703;48.154;17.126;2022-07-23T13:05:23;3.47;;;2.45;;
50737;SDS011;36703;48.154;17.126;2022-07-23T13:09:25;4.88;;;2.83;;
50737;SDS011;36703;48.154;17.126;2022-07-23T13:13:29;4.07;;;2.70;;
50737;SDS011;36703;48.154;17.126;2022-07-23T13:17:35;3.60;;;2.92;;
50737;SDS011;36703;48.154;17.126;2022-07-23T13:21:36;5.40;;;3.28;;
50737;SDS011;36703;48.154;17.126;2022-07-23T13:25:38;5.13;;;3.45;;
50737;SDS011;36703;48.154;17.126;2022-07-23T13:29:40;6.88;;;3.78;;
50737;SDS011;36703;48.154;17.126;2022-07-23T13:33:42;9.07;;;4.93;;
50737;SDS011;36703;48.154;17.126;2022-07-23T13:37:43;9.05;;;5.07;;
50737;SDS011;36703;48.154;17.126;2022-07-23T13:41:45;6.35;;;4.97;;
50737;SDS011;36703;48.154;17.126;2022-07-23T13:45:46;5.97;;;4.95;;
50737;SDS011;36703;48.154;17.126;2022-07-23T13:49:48;11.68;;;5.40;;
50737;SDS011;36703;48.154;17.126;2022-07-23T13:53:49;7.65;;;4.93;;
50737;SDS011;36703;48.154;17.126;2022-07-23T13:57:51;8.85;;;5.20;;
50737;SDS011;36703;48.154;17.126;2022-07-23T14:01:52;9.88;;;4.97;;
50737;SDS011;36703;48.154;17.126;2022-07-23T14:05:54;22.05;;;18.98;;
50737;SDS011;36703;48.154;17.126;2022-07-23T14:09:55;7.43;;;5.32;;
50737;SDS011;36703;48.154;17.126;2022-07-23T14:13:57;7.97;;;4.68;;
50737;SDS011;36703;48.154;17.126;2022-07-23T14:17:59;7.38;;;4.18;;
50737;SDS011;36703;48.154;17.126;2022-07-23T14:22:00;5.45;;;4.40;;
50737;SDS011;36703;48.154;17.126;2022-07-23T14:26:02;6.00;;;4.43;;
50737;SDS011;36703;48.154;17.126;2022-07-23T14:30:04;5.38;;;4.57;;
50737;SDS011;36703;48.154;17.126;2022-07-23T14:34:07;6.68;;;4.10;;
50737;SDS011;36703;48.154;17.126;2022-07-23T14:38:08;9.07;;;4.00;;
50737;SDS011;36703;48.154;17.126;2022-07-23T14:42:09;7.07;;;3.90;;
50737;SDS011;36703;48.154;17.126;2022-07-23T14:46:11;3.95;;;3.55;;
50737;SDS011;36703;48.154;17.126;2022-07-23T14:50:13;4.82;;;4.05;;
50737;SDS011;36703;48.154;17.126;2022-07-23T14:54:15;7.93;;;4.05;;
50737;SDS011;36703;48.154;17.126;2022-07-23T14:58:16;6.10;;;4.75;;
50737;SDS011;36703;48.154;17.126;2022-07-23T15:02:18;5.78;;;4.50;;
50737;SDS011;36703;48.154;17.126;2022-07-23T15:06:19;7.45;;;4.32;;
50737;SDS011;36703;48.154;17.126;2022-07-23T15:10:21;7.75;;;3.92;;
50737;SDS011;36703;48.154;17.126;2022-07-23T15:14:22;5.57;;;3.58;;
50737;SDS011;36703;48.154;17.126;2022-07-23T15:18:24;8.82;;;3.70;;
50737;SDS011;36703;48.154;17.126;2022-07-23T15:22:25;4.43;;;3.60;;
50737;SDS011;36703;48.154;17.126;2022-07-23T15:26:27;7.43;;;3.45;;
50737;SDS011;36703;48.154;17.126;2022-07-23T15:30:30;7.07;;;3.42;;
50737;SDS011;36703;48.154;17.126;2022-07-23T15:34:31;8.68;;;3.40;;
50737;SDS011;36703;48.154;17.126;2022-07-23T15:38:33;6.40;;;3.55;;
50737;SDS011;36703;48.154;17.126;2022-07-23T15:42:34;4.72;;;3.08;;
50737;SDS011;36703;48.154;17.126;2022-07-23T15:46:37;5.07;;;4.57;;
50737;SDS011;36703;48.154;17.126;2022-07-23T15:50:38;6.07;;;4.00;;
50737;SDS011;36703;48.154;17.126;2022-07-23T15:54:40;4.20;;;3.08;;
50737;SDS011;36703;48.154;17.126;2022-07-23T15:58:43;5.20;;;2.58;;
50737;SDS011;36703;48.154;17.126;2022-07-23T16:02:44;5.50;;;2.88;;
50737;SDS011;36703;48.154;17.126;2022-07-23T16:06:46;2.88;;;2.47;;
50737;SDS011;36703;48.154;17.126;2022-07-23T16:10:47;3.30;;;2.60;;
50737;SDS011;36703;48.154;17.126;2022-07-23T16:14:48;8.38;;;7.15;;
50737;SDS011;36703;48.154;17.126;2022-07-23T16:18:50;5.85;;;2.55;;
50737;SDS011;36703;48.154;17.126;2022-07-23T16:22:51;3.97;;;2.00;;
50737;SDS011;36703;48.154;17.126;2022-07-23T16:26:52;3.65;;;2.45;;
50737;SDS011;36703;48.154;17.126;2022-07-23T16:30:54;9.75;;;2.17;;
50737;SDS011;36703;48.154;17.126;2022-07-23T16:34:55;4.40;;;2.35;;
50737;SDS011;36703;48.154;17.126;2022-07-23T16:38:57;2.22;;;1.67;;
50737;SDS011;36703;48.154;17.126;2022-07-23T16:42:59;2.85;;;2.20;;
50737;SDS011;36703;48.154;17.126;2022-07-23T16:47:01;1.90;;;1.50;;
50737;SDS011;36703;48.154;17.126;2022-07-23T16:51:02;3.17;;;2.40;;
50737;SDS011;36703;48.154;17.126;2022-07-23T16:55:04;2.67;;;2.20;;
50737;SDS011;36703;48.154;17.126;2022-07-23T16:59:06;5.20;;;2.35;;
50737;SDS011;36703;48.154;17.126;2022-07-23T17:03:08;4.68;;;2.15;;
50737;SDS011;36703;48.154;17.126;2022-07-23T17:07:09;2.88;;;2.05;;
50737;SDS011;36703;48.154;17.126;2022-07-23T17:11:10;5.63;;;2.30;;
50737;SDS011;36703;48.154;17.126;2022-07-23T17:15:12;2.50;;;2.03;;
50737;SDS011;36703;48.154;17.126;2022-07-23T17:19:13;4.45;;;2.25;;
50737;SDS011;36703;48.154;17.126;2022-07-23T17:23:15;2.53;;;2.33;;
50737;SDS011;36703;48.154;17.126;2022-07-23T17:27:16;9.82;;;2.75;;
50737;SDS011;36703;48.154;17.126;2022-07-23T17:31:18;2.72;;;1.80;;
50737;SDS011;36703;48.154;17.126;2022-07-23T17:35:19;3.55;;;2.28;;
50737;SDS011;36703;48.154;17.126;2022-07-23T17:39:21;3.13;;;2.45;;
50737;SDS011;36703;48.154;17.126;2022-07-23T17:43:22;3.20;;;2.53;;
50737;SDS011;36703;48.154;17.126;2022-07-23T17:47:24;4.68;;;2.42;;
50737;SDS011;36703;48.154;17.126;2022-07-23T17:51:25;4.00;;;2.70;;
50737;SDS011;36703;48.154;17.126;2022-07-23T17:55:26;3.13;;;2.65;;
50737;SDS011;36703;48.154;17.126;2022-07-23T17:59:28;3.08;;;2.30;;
50737;SDS011;36703;48.154;17.126;2022-07-23T18:03:29;4.40;;;3.03;;
50737;SDS011;36703;48.154;17.126;2022-07-23T18:07:31;3.72;;;2.65;;
50737;SDS011;36703;48.154;17.126;2022-07-23T18:11:32;3.97;;;2.83;;
50737;SDS011;36703;48.154;17.126;2022-07-23T18:15:37;4.88;;;2.90;;
50737;SDS011;36703;48.154;17.126;2022-07-23T18:19:38;2.83;;;2.45;;
50737;SDS011;36703;48.154;17.126;2022-07-23T18:23:39;4.53;;;2.80;;
50737;SDS011;36703;48.154;17.126;2022-07-23T18:27:40;2.80;;;2.58;;
50737;SDS011;36703;48.154;17.126;2022-07-23T18:31:42;6.70;;;3.20;;
50737;SDS011;36703;48.154;17.126;2022-07-23T18:35:43;6.25;;;3.00;;
50737;SDS011;36703;48.154;17.126;2022-07-23T18:39:45;5.97;;;2.80;;
50737;SDS011;36703;48.154;17.126;2022-07-23T18:43:46;5.45;;;3.05;;
50737;SDS011;36703;48.154;17.126;2022-07-23T18:47:48;5.93;;;3.08;;
50737;SDS011;36703;48.154;17.126;2022-07-23T18:51:49;9.05;;;3.00;;
50737;SDS011;36703;48.154;17.126;2022-07-23T18:55:51;3.55;;;2.63;;
50737;SDS011;36703;48.154;17.126;2022-07-23T18:59:52;4.57;;;2.85;;
50737;SDS011;36703;48.154;17.126;2022-07-23T19:03:53;4.50;;;3.10;;
50737;SDS011;36703;48.154;17.126;2022-07-23T19:07:54;5.88;;;3.50;;
50737;SDS011;36703;48.154;17.126;2022-07-23T19:11:56;5.80;;;3.50;;
50737;SDS011;36703;48.154;17.126;2022-07-23T19:15:57;6.05;;;3.17;;
50737;SDS011;36703;48.154;17.126;2022-07-23T19:20:02;5.00;;;3.15;;
50737;SDS011;36703;48.154;17.126;2022-07-23T19:24:07;5.78;;;3.10;;
50737;SDS011;36703;48.154;17.126;2022-07-23T19:28:08;5.30;;;2.90;;
50737;SDS011;36703;48.154;17.126;2022-07-23T19:32:10;4.53;;;3.13;;
50737;SDS011;36703;48.154;17.126;2022-07-23T19:36:12;5.10;;;3.00;;
50737;SDS011;36703;48.154;17.126;2022-07-23T19:40:14;5.25;;;3.38;;
50737;SDS011;36703;48.154;17.126;2022-07-23T19:44:16;4.90;;;3.15;;
50737;SDS011;36703;48.154;17.126;2022-07-23T19:48:17;10.80;;;5.50;;
50737;SDS011;36703;48.154;17.126;2022-07-23T19:52:18;4.00;;;3.60;;
50737;SDS011;36703;48.154;17.126;2022-07-23T19:56:19;8.55;;;3.35;;
50737;SDS011;36703;48.154;17.126;2022-07-23T20:00:21;4.22;;;3.10;;
50737;SDS011;36703;48.154;17.126;2022-07-23T20:04:23;4.05;;;3.00;;
50737;SDS011;36703;48.154;17.126;2022-07-23T20:08:24;3.55;;;3.15;;
50737;SDS011;36703;48.154;17.126;2022-07-23T20:12:25;3.45;;;3.00;;
50737;SDS011;36703;48.154;17.126;2022-07-23T20:16:27;6.07;;;3.30;;
50737;SDS011;36703;48.154;17.126;2022-07-23T20:20:28;4.32;;;3.65;;
50737;SDS011;36703;48.154;17.126;2022-07-23T20:24:30;3.67;;;3.38;;
50737;SDS011;36703;48.154;17.126;2022-07-23T20:28:31;5.30;;;3.70;;
50737;SDS011;36703;48.154;17.126;2022-07-23T20:32:34;5.00;;;4.28;;
50737;SDS011;36703;48.154;17.126;2022-07-23T20:36:35;8.15;;;4.30;;
50737;SDS011;36703;48.154;17.126;2022-07-23T20:40:37;7.70;;;4.63;;
50737;SDS011;36703;48.154;17.126;2022-07-23T20:44:41;9.25;;;4.20;;
50737;SDS011;36703;48.154;17.126;2022-07-23T20:48:42;5.78;;;3.97;;
50737;SDS011;36703;48.154;17.126;2022-07-23T20:52:43;6.70;;;4.45;;
50737;SDS011;36703;48.154;17.126;2022-07-23T20:56:45;5.20;;;4.28;;
50737;SDS011;36703;48.154;17.126;2022-07-23T21:00:46;8.70;;;4.65;;
50737;SDS011;36703;48.154;17.126;2022-07-23T21:04:48;4.68;;;3.97;;
50737;SDS011;36703;48.154;17.126;2022-07-23T21:08:50;5.53;;;4.10;;
50737;SDS011;36703;48.154;17.126;2022-07-23T21:12:51;5.13;;;3.75;;
50737;SDS011;36703;48.154;17.126;2022-07-23T21:16:53;7.72;;;4.60;;
50737;SDS011;36703;48.154;17.126;2022-07-23T21:20:55;5.32;;;4.75;;
50737;SDS011;36703;48.154;17.126;2022-07-23T21:25:08;9.02;;;4.38;;
50737;SDS011;36703;48.154;17.126;2022-07-23T21:29:10;6.65;;;4.88;;
50737;SDS011;36703;48.154;17.126;2022-07-23T21:33:11;6.10;;;4.28;;
50737;SDS011;36703;48.154;17.126;2022-07-23T21:37:12;5.43;;;4.45;;
50737;SDS011;36703;48.154;17.126;2022-07-23T21:41:14;4.95;;;4.03;;
50737;SDS011;36703;48.154;17.126;2022-07-23T21:45:15;7.00;;;4.45;;
50737;SDS011;36703;48.154;17.126;2022-07-23T21:49:17;5.68;;;4.40;;
50737;SDS011;36703;48.154;17.126;2022-07-23T21:53:18;6.20;;;4.50;;
50737;SDS011;36703;48.154;17.126;2022-07-23T21:57:20;6.55;;;4.28;;
50737;SDS011;36703;48.154;17.126;2022-07-23T22:01:21;9.15;;;4.10;;
50737;SDS011;36703;48.154;17.126;2022-07-23T22:05:23;6.80;;;3.97;;
50737;SDS011;36703;48.154;17.126;2022-07-23T22:09:26;5.10;;;4.28;;
50737;SDS011;36703;48.154;17.126;2022-07-23T22:13:27;6.13;;;4.25;;
50737;SDS011;36703;48.154;17.126;2022-07-23T22:17:29;6.03;;;4.20;;
50737;SDS011;36703;48.154;17.126;2022-07-23T22:21:30;4.95;;;4.13;;
50737;SDS011;36703;48.154;17.126;2022-07-23T22:25:31;6.32;;;4.47;;
50737;SDS011;36703;48.154;17.126;2022-07-23T22:29:33;6.13;;;4.55;;
50737;SDS011;36703;48.154;17.126;2022-07-23T22:33:35;5.93;;;4.40;;
50737;SDS011;36703;48.154;17.126;2022-07-23T22:37:36;10.52;;;4.05;;
50737;SDS011;36703;48.154;17.126;2022-07-23T22:41:38;5.63;;;4.30;;
50737;SDS011;36703;48.154;17.126;2022-07-23T22:45:39;4.78;;;4.25;;
50737;SDS011;36703;48.154;17.126;2022-07-23T22:49:40;5.32;;;3.83;;
50737;SDS011;36703;48.154;17.126;2022-07-23T22:53:41;7.40;;;4.07;;
50737;SDS011;36703;48.154;17.126;2022-07-23T22:57:43;5.88;;;4.18;;
50737;SDS011;36703;48.154;17.126;2022-07-23T23:01:44;5.72;;;4.13;;
50737;SDS011;36703;48.154;17.126;2022-07-23T23:05:45;9.13;;;4.40;;
50737;SDS011;36703;48.154;17.126;2022-07-23T23:09:46;6.68;;;4.25;;
50737;SDS011;36703;48.154;17.126;2022-07-23T23:13:48;4.93;;;4.13;;
50737;SDS011;36703;48.154;17.126;2022-07-23T23:17:49;6.32;;;4.32;;
50737;SDS011;36703;48.154;17.126;2022-07-23T23:21:51;6.63;;;4.15;;
50737;SDS011;36703;48.154;17.126;2022-07-23T23:25:52;7.05;;;4.53;;
50737;SDS011;36703;48.154;17.126;2022-07-23T23:29:54;6.93;;;3.88;;
50737;SDS011;36703;48.154;17.126;2022-07-23T23:33:55;9.82;;;4.45;;
50737;SDS011;36703;48.154;17.126;2022-07-23T23:37:56;5.53;;;4.30;;
50737;SDS011;36703;48.154;17.126;2022-07-23T23:41:58;4.57;;;3.88;;
50737;SDS011;36703;48.154;17.126;2022-07-23T23:45:59;6.15;;;4.30;;
50737;SDS011;36703;48.154;17.126;2022-07-23T23:50:01;7.15;;;4.20;;
50737;SDS011;36703;48.154;17.126;2022-07-23T23:54:03;4.22;;;3.67;;
50737;SDS011;36703;48.154;17.126;2022-07-23T23:58:05;49.17;;;33.00;;
